Time;durP1;ratioP1;P1;durP2;ratioP2;P2;SDS_P1;SDS_P2;PMS_P1;PMS_P2;Temp;Humidity;BMP_temperature;BMP_pressure;BME280_temperature;BME280_humidity;BME280_pressure;Samples;Min_cycle;Max_cycle;Signal;HPM_P1;HPM_P2
2023/04/30 00:01:43;;;;;;;8.00;6.37;;;11.50;13.20;;;;;;5037571;28;20340;-44
2023/04/30 00:04:08;;;;;;;8.13;7.43;;;11.50;1.00;;;;;;5036725;28;20257;-45
2023/04/30 00:06:34;;;;;;;7.53;6.83;;;11.50;1.00;;;;;;5036028;28;20276;-45
2023/04/30 00:09:00;;;;;;;7.60;6.70;;;11.40;31.30;;;;;;5037381;28;20276;-43
2023/04/30 00:11:25;;;;;;;7.20;6.50;;;11.40;57.60;;;;;;5036695;28;20179;-43
2023/04/30 00:13:51;;;;;;;7.80;7.10;;;11.40;99.90;;;;;;5036882;28;20189;-44
2023/04/30 00:16:17;;;;;;;7.77;7.07;;;11.40;99.90;;;;;;5037369;28;20344;-45
2023/04/30 00:18:43;;;;;;;7.70;6.90;;;11.30;99.90;;;;;;5036573;28;20444;-43
2023/04/30 00:21:09;;;;;;;6.87;6.27;;;11.30;99.90;;;;;;5035896;28;20890;-44
2023/04/30 00:23:35;;;;;;;7.00;6.30;;;11.30;99.90;;;;;;5036733;28;20433;-44
2023/04/30 00:26:01;;;;;;;7.00;6.30;;;11.30;99.90;;;;;;5036944;28;20174;-44
2023/04/30 00:28:27;;;;;;;7.13;6.43;;;11.30;99.90;;;;;;5036712;28;20233;-48
2023/04/30 00:30:52;;;;;;;9.70;7.67;;;11.30;99.90;;;;;;5036300;28;20551;-43
2023/04/30 00:33:18;;;;;;;7.50;6.80;;;11.30;99.90;;;;;;5034954;28;20178;-44
2023/04/30 00:35:44;;;;;;;7.70;6.77;;;11.30;99.90;;;;;;5033606;28;20186;-44
2023/04/30 00:38:10;;;;;;;8.33;7.53;;;11.30;99.90;;;;;;5034921;28;20576;-46
2023/04/30 00:40:36;;;;;;;8.50;6.83;;;11.30;99.90;;;;;;5034833;28;20244;-43
2023/04/30 00:43:02;;;;;;;8.20;7.40;;;11.30;99.90;;;;;;5035633;28;20183;-46
2023/04/30 00:45:27;;;;;;;8.10;7.27;;;11.30;99.90;;;;;;5034241;28;20448;-44
2023/04/30 00:47:53;;;;;;;8.30;7.60;;;11.20;99.90;;;;;;5034341;28;20179;-44
2023/04/30 00:50:19;;;;;;;7.70;6.97;;;11.20;99.90;;;;;;5033242;28;20264;-44
2023/04/30 00:52:44;;;;;;;7.80;6.63;;;11.10;99.90;;;;;;5031829;28;20185;-45
2023/04/30 00:55:11;;;;;;;7.70;6.90;;;11.10;99.90;;;;;;5031299;28;20174;-43
2023/04/30 00:57:38;;;;;;;7.77;6.13;;;11.10;99.90;;;;;;5031276;28;20240;-44
2023/04/30 01:00:10;;;;;;;8.10;7.30;;;11.10;99.90;;;;;;5030776;28;20833;-44
2023/04/30 01:02:38;;;;;;;7.97;7.23;;;11.00;99.90;;;;;;5033684;28;20416;-45
2023/04/30 01:05:05;;;;;;;8.10;7.27;;;11.00;99.90;;;;;;5033992;28;20496;-47
2023/04/30 01:07:30;;;;;;;8.40;7.60;;;11.00;99.90;;;;;;5034017;28;20421;-45
2023/04/30 01:09:56;;;;;;;8.43;7.63;;;11.00;1.00;;;;;;5034622;28;20512;-45
2023/04/30 01:12:28;;;;;;;8.80;7.90;;;11.00;99.90;;;;;;5036910;28;20182;-44
2023/04/30 01:15:00;;;;;;;8.50;7.67;;;10.90;1.00;;;;;;5039423;28;20422;-44
2023/04/30 01:17:37;;;;;;;8.33;7.47;;;10.90;1.00;;;;;;5039641;28;20409;-45
2023/04/30 01:20:04;;;;;;;7.87;7.10;;;10.90;1.00;;;;;;5022766;28;20464;-46
2023/04/30 01:22:56;;;;;;;9.17;7.50;;;10.80;1.00;;;;;;5039119;28;20440;-45
2023/04/30 01:25:26;;;;;;;11.07;7.97;;;10.80;1.00;;;;;;5015877;28;20425;-46
2023/04/30 01:28:14;;;;;;;8.40;7.60;;;10.80;1.00;;;;;;5038067;28;20471;-44
2023/04/30 01:30:43;;;;;;;9.57;8.67;;;10.80;1.00;;;;;;5039149;28;20722;-45
2023/04/30 01:33:09;;;;;;;9.57;8.50;;;10.70;1.00;;;;;;5038602;28;20535;-46
2023/04/30 01:35:51;;;;;;;6.70;6.10;;;10.70;1.00;;;;;;5039520;28;20420;-44
2023/04/30 01:38:40;;;;;;;8.17;7.10;;;10.70;1.00;;;;;;5040319;28;20460;-46
2023/04/30 01:41:14;;;;;;;8.73;7.87;;;10.70;1.00;;;;;;5039893;28;20465;-44
2023/04/30 01:44:08;;;;;;;8.53;7.73;;;10.70;1.00;;;;;;5040587;28;20427;-45
2023/04/30 01:46:34;;;;;;;8.83;7.47;;;10.70;1.00;;;;;;5040117;28;20508;-45
2023/04/30 01:49:34;;;;;;;10.03;8.30;;;10.80;1.00;;;;;;5040596;28;20781;-48
2023/04/30 01:52:14;;;;;;;9.67;8.77;;;10.80;1.00;;;;;;5007220;28;20425;-46
2023/04/30 01:55:07;;;;;;;8.43;7.23;;;10.80;1.00;;;;;;5036524;28;20432;-44
2023/04/30 01:57:46;;;;;;;8.40;7.60;;;10.80;1.00;;;;;;5030942;28;20429;-44
2023/04/30 02:00:13;;;;;;;9.57;8.57;;;10.80;1.00;;;;;;5038938;28;20491;-46
2023/04/30 02:02:39;;;;;;;9.07;8.13;;;10.80;1.00;;;;;;5040536;28;20482;-46
2023/04/30 02:05:06;;;;;;;14.10;8.47;;;10.80;1.00;;;;;;5038743;28;20429;-45
2023/04/30 02:07:41;;;;;;;8.67;7.77;;;10.80;99.90;;;;;;5038965;28;20243;-45
2023/04/30 02:10:07;;;;;;;13.00;8.60;;;10.80;99.90;;;;;;5039410;28;20424;-45
2023/04/30 02:12:33;;;;;;;10.20;8.73;;;10.80;1.00;;;;;;5040070;28;20417;-46
2023/04/30 02:14:59;;;;;;;11.97;9.77;;;10.70;1.00;;;;;;5039838;28;20448;-45
2023/04/30 02:17:24;;;;;;;9.60;8.60;;;10.70;99.90;;;;;;5039698;28;20546;-44
2023/04/30 02:19:50;;;;;;;10.37;9.27;;;10.70;99.90;;;;;;5039725;28;20240;-46
2023/04/30 02:22:16;;;;;;;10.50;9.50;;;10.70;99.90;;;;;;5039951;28;20185;-47
2023/04/30 02:24:41;;;;;;;9.27;8.20;;;10.80;99.90;;;;;;5038769;28;20191;-44
2023/04/30 02:27:07;;;;;;;10.00;9.00;;;10.80;99.90;;;;;;5039485;28;20179;-45
2023/04/30 02:29:33;;;;;;;10.90;9.77;;;10.70;99.90;;;;;;5037658;28;20312;-46
2023/04/30 02:31:58;;;;;;;11.50;10.30;;;10.70;99.90;;;;;;5038111;28;20179;-44
2023/04/30 02:34:25;;;;;;;9.20;8.30;;;10.70;99.90;;;;;;5037801;28;20206;-43
2023/04/30 02:36:51;;;;;;;11.73;10.27;;;10.70;99.90;;;;;;5036700;28;20424;-45
2023/04/30 02:39:17;;;;;;;11.07;9.73;;;10.70;99.90;;;;;;5036655;28;20190;-45
2023/04/30 02:41:43;;;;;;;11.87;10.60;;;10.70;99.90;;;;;;5038091;28;20222;-45
2023/04/30 02:44:08;;;;;;;10.07;9.07;;;10.70;99.90;;;;;;5038164;28;20178;-47
2023/04/30 02:46:34;;;;;;;10.83;9.43;;;10.60;99.90;;;;;;5039354;28;20194;-46
2023/04/30 02:49:00;;;;;;;11.10;9.73;;;10.60;99.90;;;;;;5039422;28;20557;-45
2023/04/30 02:51:25;;;;;;;11.73;10.53;;;10.60;99.90;;;;;;5039268;28;20472;-45
2023/04/30 02:53:51;;;;;;;12.13;10.87;;;10.60;99.90;;;;;;5039535;28;20186;-44
2023/04/30 02:56:17;;;;;;;11.57;10.37;;;10.60;99.90;;;;;;5038496;28;20183;-45
2023/04/30 02:58:42;;;;;;;12.23;10.57;;;10.60;99.90;;;;;;5038421;28;20572;-44
2023/04/30 03:01:08;;;;;;;10.60;9.50;;;10.60;99.90;;;;;;5037848;28;20600;-45
2023/04/30 03:03:34;;;;;;;12.97;11.33;;;10.60;99.90;;;;;;5048329;28;20194;-46
2023/04/30 03:05:59;;;;;;;12.20;10.90;;;10.60;99.90;;;;;;5058548;28;20177;-47
2023/04/30 03:08:25;;;;;;;12.23;10.93;;;10.50;99.90;;;;;;5058896;28;20186;-43
2023/04/30 03:10:51;;;;;;;13.40;12.10;;;10.50;99.90;;;;;;5058772;28;20189;-44
2023/04/30 03:13:17;;;;;;;12.77;11.47;;;10.50;99.90;;;;;;5059033;28;20698;-45
2023/04/30 03:15:43;;;;;;;12.17;10.63;;;10.50;99.90;;;;;;5058224;28;20206;-44
2023/04/30 03:18:09;;;;;;;12.80;11.50;;;10.40;99.90;;;;;;5059029;28;20509;-44
2023/04/30 03:20:35;;;;;;;12.87;10.90;;;10.40;99.90;;;;;;5059185;28;20205;-44
2023/04/30 03:23:01;;;;;;;13.80;11.70;;;10.40;99.90;;;;;;5059078;28;20432;-46
2023/04/30 03:25:26;;;;;;;13.07;11.77;;;10.40;99.90;;;;;;5058010;28;20628;-44
2023/04/30 03:27:52;;;;;;;13.97;11.33;;;10.40;99.90;;;;;;5057710;28;20279;-46
2023/04/30 03:30:18;;;;;;;14.10;12.20;;;10.40;99.90;;;;;;5041444;28;20200;-44
2023/04/30 03:32:44;;;;;;;13.47;12.10;;;10.40;99.90;;;;;;5053805;28;20475;-44
2023/04/30 03:35:10;;;;;;;13.40;12.00;;;10.40;99.90;;;;;;5041693;28;20424;-48
2023/04/30 03:37:36;;;;;;;14.57;13.07;;;10.40;99.90;;;;;;5057500;28;20412;-44
2023/04/30 03:40:02;;;;;;;13.73;12.13;;;10.30;99.90;;;;;;5056859;28;20850;-44
2023/04/30 03:42:27;;;;;;;16.40;13.00;;;10.30;99.90;;;;;;5055989;28;20221;-44
2023/04/30 03:44:53;;;;;;;13.67;11.87;;;10.30;99.90;;;;;;5046134;28;20448;-44
2023/04/30 03:47:19;;;;;;;15.37;11.43;;;10.30;99.90;;;;;;5053354;28;20448;-44
2023/04/30 03:49:44;;;;;;;14.97;13.37;;;10.30;99.90;;;;;;5053676;28;20482;-45
2023/04/30 03:52:10;;;;;;;13.17;11.87;;;10.30;1.00;;;;;;5054464;28;20185;-44
2023/04/30 03:54:36;;;;;;;15.50;13.60;;;10.20;1.00;;;;;;5055872;28;20217;-45
2023/04/30 03:57:03;;;;;;;13.47;12.20;;;10.20;1.00;;;;;;5039414;28;20174;-44
2023/04/30 03:59:33;;;;;;;14.90;12.73;;;10.20;1.00;;;;;;5038601;28;20278;-44
2023/04/30 04:02:00;;;;;;;15.13;13.53;;;10.20;1.00;;;;;;5038354;28;20476;-49
2023/04/30 04:04:26;;;;;;;15.17;13.57;;;10.20;1.00;;;;;;5037150;28;20872;-44
2023/04/30 04:06:51;;;;;;;15.27;12.67;;;10.20;1.00;;;;;;5049034;28;20718;-44
2023/04/30 04:09:17;;;;;;;13.30;11.90;;;10.20;1.00;;;;;;5057555;28;20182;-45
2023/04/30 04:11:42;;;;;;;13.40;12.00;;;10.20;1.00;;;;;;5057876;28;20261;-45
2023/04/30 04:14:08;;;;;;;13.57;12.27;;;10.20;1.00;;;;;;5058108;28;20186;-44
2023/04/30 04:16:34;;;;;;;13.93;12.43;;;10.20;1.00;;;;;;5057901;28;20192;-46
2023/04/30 04:18:59;;;;;;;14.70;12.63;;;10.20;1.00;;;;;;5056971;28;20197;-45
2023/04/30 04:21:25;;;;;;;13.87;11.30;;;10.10;99.90;;;;;;5058244;28;20213;-45
2023/04/30 04:23:51;;;;;;;13.87;12.33;;;10.10;99.90;;;;;;5057467;28;20174;-43
2023/04/30 04:26:18;;;;;;;14.03;12.63;;;10.10;1.00;;;;;;5056887;28;20423;-45
2023/04/30 04:28:45;;;;;;;16.17;12.63;;;10.10;1.00;;;;;;5056506;28;20233;-45
2023/04/30 04:31:10;;;;;;;16.20;12.50;;;10.10;99.90;;;;;;5056263;28;20417;-47
2023/04/30 04:33:36;;;;;;;13.67;12.23;;;10.20;99.90;;;;;;5055340;28;20874;-45
2023/04/30 04:36:02;;;;;;;14.23;12.73;;;10.10;1.00;;;;;;5041537;28;20567;-43
2023/04/30 04:38:29;;;;;;;15.30;12.50;;;10.20;99.90;;;;;;5035918;28;20464;-45
2023/04/30 04:40:55;;;;;;;14.73;13.20;;;10.20;99.90;;;;;;5037387;28;20538;-44
2023/04/30 04:43:21;;;;;;;13.33;12.00;;;10.20;99.90;;;;;;5037434;28;20424;-44
2023/04/30 04:45:47;;;;;;;13.83;12.37;;;10.20;99.90;;;;;;5036702;28;20422;-44
2023/04/30 04:48:13;;;;;;;12.70;11.50;;;10.20;99.90;;;;;;5036708;28;20182;-44
2023/04/30 04:50:39;;;;;;;13.73;12.27;;;10.20;99.90;;;;;;5036069;28;20488;-44
2023/04/30 04:53:05;;;;;;;14.90;13.30;;;10.30;99.90;;;;;;5035273;28;20428;-43
2023/04/30 04:55:31;;;;;;;12.87;11.67;;;10.30;98.40;;;;;;5036103;28;20421;-46
2023/04/30 04:57:57;;;;;;;14.27;12.77;;;10.40;16.40;;;;;;5041662;28;20706;-44
2023/04/30 05:00:22;;;;;;;16.33;13.27;;;10.40;1.00;;;;;;5055455;28;20216;-44
2023/04/30 05:02:48;;;;;;;14.70;13.13;;;10.40;14.70;;;;;;5056183;28;20174;-44
2023/04/30 05:05:14;;;;;;;12.80;11.50;;;10.40;1.00;;;;;;5055732;28;20185;-45
2023/04/30 05:07:40;;;;;;;13.30;11.90;;;10.50;1.00;;;;;;5056410;28;20722;-43
2023/04/30 05:10:07;;;;;;;13.20;11.80;;;10.50;1.00;;;;;;5057041;28;20555;-44
2023/04/30 05:12:32;;;;;;;13.07;11.77;;;10.60;1.00;;;;;;5056677;28;20197;-47
2023/04/30 05:14:58;;;;;;;12.20;11.00;;;10.60;99.90;;;;;;5040696;28;20460;-44
2023/04/30 05:17:24;;;;;;;16.70;12.60;;;10.60;99.90;;;;;;5050343;28;20485;-44
2023/04/30 05:19:50;;;;;;;15.90;13.57;;;10.70;99.90;;;;;;5056668;28;20186;-43
2023/04/30 05:22:16;;;;;;;13.10;11.80;;;10.70;99.90;;;;;;5056589;28;20424;-44
2023/04/30 05:24:42;;;;;;;13.87;12.40;;;10.80;1.00;;;;;;5055914;28;20547;-45
2023/04/30 05:27:08;;;;;;;13.97;12.47;;;10.90;36.60;;;;;;5056664;28;20174;-45
2023/04/30 05:29:34;;;;;;;12.30;10.60;;;10.90;1.00;;;;;;5055751;28;20246;-45
2023/04/30 05:32:00;;;;;;;11.97;10.80;;;11.00;1.00;;;;;;5056018;28;20491;-45
2023/04/30 05:34:26;;;;;;;13.67;12.20;;;11.10;1.00;;;;;;5051562;28;20256;-43
2023/04/30 05:36:52;;;;;;;13.67;12.17;;;11.10;1.00;;;;;;5036670;28;20417;-43
2023/04/30 05:39:17;;;;;;;13.57;12.27;;;11.20;99.90;;;;;;5035774;28;20437;-47
2023/04/30 05:41:43;;;;;;;13.53;12.27;;;11.20;12.20;;;;;;5035604;28;20788;-43
2023/04/30 05:44:09;;;;;;;13.60;12.30;;;11.20;99.90;;;;;;5035012;28;20186;-45
2023/04/30 05:46:35;;;;;;;14.50;12.57;;;11.20;99.90;;;;;;5034805;28;20178;-43
2023/04/30 05:49:01;;;;;;;13.33;11.93;;;11.20;2.00;;;;;;5043504;28;20568;-47
2023/04/30 05:51:27;;;;;;;14.07;12.33;;;11.30;1.00;;;;;;5035117;28;20421;-45
2023/04/30 05:53:53;;;;;;;12.60;11.40;;;11.20;1.00;;;;;;5036382;28;20499;-44
2023/04/30 05:56:19;;;;;;;12.87;11.53;;;11.30;1.00;;;;;;5036331;28;20205;-46
2023/04/30 05:58:45;;;;;;;13.30;11.33;;;11.40;99.90;;;;;;5050756;28;20555;-44
2023/04/30 06:01:11;;;;;;;12.60;11.03;;;11.60;1.00;;;;;;5057428;28;20486;-43
2023/04/30 06:03:37;;;;;;;12.70;11.40;;;11.60;89.30;;;;;;5058263;28;20818;-47
2023/04/30 06:06:03;;;;;;;13.00;11.80;;;11.70;43.80;;;;;;5057058;28;20177;-44
2023/04/30 06:08:29;;;;;;;11.23;10.17;;;11.80;1.00;;;;;;5058706;28;20174;-46
2023/04/30 06:10:55;;;;;;;12.33;11.10;;;11.80;11.00;;;;;;5058206;28;20686;-44
2023/04/30 06:13:21;;;;;;;13.73;11.90;;;11.90;89.20;;;;;;5057531;28;20177;-44
2023/04/30 06:15:46;;;;;;;12.50;11.23;;;11.90;99.90;;;;;;5057335;28;20170;-45
2023/04/30 06:18:13;;;;;;;12.20;10.80;;;12.00;99.90;;;;;;5059063;28;20419;-43
2023/04/30 06:20:39;;;;;;;13.23;11.80;;;12.10;1.00;;;;;;5059181;28;20243;-46
2023/04/30 06:23:05;;;;;;;13.47;12.17;;;12.20;81.60;;;;;;5058437;28;20438;-43
2023/04/30 06:25:30;;;;;;;12.40;10.53;;;12.30;1.00;;;;;;5059688;28;20558;-45
2023/04/30 06:27:56;;;;;;;15.00;12.60;;;12.30;1.00;;;;;;5059231;28;20535;-43
2023/04/30 06:30:22;;;;;;;11.83;10.63;;;12.40;1.00;;;;;;5056321;28;20193;-44
2023/04/30 06:32:47;;;;;;;12.50;11.40;;;12.50;99.90;;;;;;5038929;28;20186;-43
2023/04/30 06:35:13;;;;;;;12.70;11.50;;;12.50;99.90;;;;;;5037829;28;20190;-44
2023/04/30 06:37:39;;;;;;;12.10;10.90;;;12.60;20.20;;;;;;5038101;28;20174;-44
2023/04/30 06:40:06;;;;;;;13.77;12.47;;;12.70;99.90;;;;;;5038587;28;20484;-43
2023/04/30 06:42:33;;;;;;;13.40;12.20;;;12.80;1.00;;;;;;5037830;28;20206;-43
2023/04/30 06:45:02;;;;;;;11.90;10.70;;;12.90;1.00;;;;;;5021773;28;20429;-44
2023/04/30 06:47:33;;;;;;;12.40;11.20;;;13.10;1.00;;;;;;5038958;28;20417;-45
2023/04/30 06:50:00;;;;;;;13.07;11.77;;;13.20;99.90;;;;;;5038402;28;20868;-45
2023/04/30 06:52:25;;;;;;;12.90;11.60;;;13.30;1.00;;;;;;5038462;28;20413;-44
2023/04/30 06:54:51;;;;;;;12.10;10.90;;;13.30;1.00;;;;;;5036558;28;20727;-46
2023/04/30 06:57:17;;;;;;;12.07;10.87;;;13.30;1.00;;;;;;5038435;28;20424;-48
2023/04/30 06:59:43;;;;;;;12.50;11.25;;;13.50;1.00;;;;;;5051109;28;20194;-44
2023/04/30 07:02:09;;;;;;;11.73;10.63;;;13.60;99.90;;;;;;5036608;28;20306;-43
2023/04/30 07:04:36;;;;;;;12.67;11.30;;;13.80;99.90;;;;;;5037113;28;20499;-44
2023/04/30 07:07:02;;;;;;;11.83;10.83;;;13.90;1.00;;;;;;5036295;28;20455;-44
2023/04/30 07:09:28;;;;;;;11.67;10.47;;;14.00;1.00;;;;;;5038518;28;20465;-45
2023/04/30 07:11:54;;;;;;;11.93;10.77;;;14.10;1.00;;;;;;5038260;28;20252;-45
2023/04/30 07:14:20;;;;;;;11.13;10.13;;;14.10;1.00;;;;;;5037818;28;20433;-45
2023/04/30 07:16:48;;;;;;;10.63;9.63;;;14.10;1.00;;;;;;5038364;28;20429;-44
2023/04/30 07:19:14;;;;;;;12.10;10.90;;;14.20;1.00;;;;;;5044006;28;20193;-47
2023/04/30 07:21:39;;;;;;;11.33;10.23;;;14.20;1.00;;;;;;5057366;28;20475;-44
2023/04/30 07:24:05;;;;;;;11.00;9.90;;;14.30;1.00;;;;;;5057028;28;20182;-46
2023/04/30 07:26:31;;;;;;;11.80;10.60;;;14.50;1.00;;;;;;5057410;28;20177;-44
2023/04/30 07:28:56;;;;;;;9.80;8.90;;;14.60;1.00;;;;;;5055721;28;20243;-44
2023/04/30 07:31:22;;;;;;;10.87;9.80;;;14.90;1.00;;;;;;5056289;28;20541;-44
2023/04/30 07:33:49;;;;;;;10.07;9.07;;;15.30;99.90;;;;;;5054841;28;20178;-46
2023/04/30 07:36:15;;;;;;;11.60;10.07;;;15.50;99.90;;;;;;5055641;28;20178;-47
2023/04/30 07:38:41;;;;;;;10.03;9.10;;;15.80;99.90;;;;;;5054676;28;20435;-45
2023/04/30 07:41:08;;;;;;;10.43;9.33;;;16.10;99.90;;;;;;5054470;28;20452;-45
2023/04/30 07:43:34;;;;;;;10.30;9.33;;;16.40;99.90;;;;;;5053375;28;20599;-46
2023/04/30 07:46:01;;;;;;;9.37;8.47;;;16.60;16.60;;;;;;5052478;28;20413;-46
2023/04/30 07:48:26;;;;;;;9.13;8.27;;;16.80;1.00;;;;;;5054065;28;20470;-46
2023/04/30 07:50:52;;;;;;;9.53;8.73;;;16.80;1.00;;;;;;5052560;28;20703;-45
2023/04/30 07:53:18;;;;;;;9.37;8.57;;;16.70;1.00;;;;;;5054063;28;20213;-46
2023/04/30 07:55:43;;;;;;;13.73;9.23;;;16.70;1.00;;;;;;5053165;28;20185;-44
2023/04/30 07:58:09;;;;;;;10.43;8.73;;;16.80;1.00;;;;;;5052369;28;20196;-45
2023/04/30 08:00:35;;;;;;;8.90;8.10;;;17.10;1.00;;;;;;5053275;28;20552;-44
2023/04/30 08:03:00;;;;;;;7.17;6.50;;;17.20;1.00;;;;;;5051605;28;20622;-44
2023/04/30 08:05:26;;;;;;;9.10;8.30;;;17.40;1.00;;;;;;5053844;28;20706;-45
2023/04/30 08:07:52;;;;;;;7.83;7.13;;;17.60;1.00;;;;;;5054837;28;20543;-45
2023/04/30 08:10:18;;;;;;;9.47;8.67;;;17.30;1.00;;;;;;5053050;28;20213;-46
2023/04/30 08:12:44;;;;;;;8.10;7.43;;;17.20;1.00;;;;;;5053933;28;20427;-46
2023/04/30 08:15:09;;;;;;;8.20;7.50;;;17.00;1.00;;;;;;5054288;28;20178;-46
2023/04/30 08:17:35;;;;;;;9.00;8.20;;;17.20;1.00;;;;;;5053622;28;20181;-45
2023/04/30 08:20:03;;;;;;;8.60;7.80;;;17.20;1.00;;;;;;5053466;28;20257;-44
2023/04/30 08:22:29;;;;;;;7.73;7.13;;;17.30;1.00;;;;;;5053741;28;20254;-45
2023/04/30 08:24:54;;;;;;;8.73;8.03;;;17.30;1.00;;;;;;5050432;28;20715;-44
2023/04/30 08:27:21;;;;;;;9.73;8.93;;;17.00;1.00;;;;;;5052217;28;20468;-45
2023/04/30 08:29:47;;;;;;;7.47;6.73;;;16.80;1.00;;;;;;5053008;28;20316;-48
2023/04/30 08:32:12;;;;;;;8.40;7.70;;;16.80;1.00;;;;;;5055047;28;20581;-45
2023/04/30 08:34:42;;;;;;;7.37;6.67;;;17.20;1.00;;;;;;5054592;28;20193;-46
2023/04/30 08:37:08;;;;;;;7.73;7.03;;;17.50;1.00;;;;;;5052821;28;20178;-46
2023/04/30 08:39:33;;;;;;;6.60;5.87;;;17.60;1.00;;;;;;5050627;28;20428;-45
2023/04/30 08:42:02;;;;;;;7.00;6.40;;;17.50;1.00;;;;;;5050250;28;20464;-45
2023/04/30 08:44:29;;;;;;;7.57;6.90;;;17.30;1.00;;;;;;5051929;28;20350;-46
2023/04/30 08:46:57;;;;;;;7.43;6.80;;;17.30;1.00;;;;;;5052465;28;20500;-45
2023/04/30 08:49:23;;;;;;;6.87;6.30;;;17.30;1.00;;;;;;5051684;28;20870;-47
2023/04/30 08:51:49;;;;;;;7.90;7.20;;;17.30;1.00;;;;;;5053124;28;20515;-46
2023/04/30 08:54:16;;;;;;;8.00;7.20;;;17.10;1.00;;;;;;5051777;28;20580;-45
2023/04/30 08:56:41;;;;;;;7.87;7.00;;;17.30;1.00;;;;;;5055053;28;20532;-43
2023/04/30 08:59:07;;;;;;;7.00;6.37;;;17.30;1.00;;;;;;5053969;28;20865;-46
2023/04/30 09:01:33;;;;;;;9.37;7.50;;;17.30;1.00;;;;;;5052194;28;20213;-45
2023/04/30 09:04:01;;;;;;;7.30;6.60;;;17.10;1.00;;;;;;5051677;28;20259;-44
2023/04/30 09:06:27;;;;;;;7.33;6.73;;;17.00;1.00;;;;;;5052639;28;20786;-45
2023/04/30 09:08:53;;;;;;;6.43;5.83;;;16.80;1.00;;;;;;5053662;28;20471;-46
2023/04/30 09:11:30;;;;;;;8.47;7.17;;;16.80;1.00;;;;;;5053356;28;20264;-46
2023/04/30 09:14:00;;;;;;;7.40;6.80;;;16.80;1.00;;;;;;5053597;28;20428;-45
2023/04/30 09:16:31;;;;;;;6.70;6.10;;;16.70;1.00;;;;;;5053088;28;20416;-45
2023/04/30 09:18:58;;;;;;;6.83;6.23;;;16.60;1.00;;;;;;5052057;28;20439;-44
2023/04/30 09:21:50;;;;;;;7.50;6.80;;;16.40;1.00;;;;;;5051620;28;20582;-45
2023/04/30 09:24:16;;;;;;;6.43;5.93;;;16.40;1.00;;;;;;5044626;28;20440;-47
2023/04/30 09:26:42;;;;;;;5.47;5.00;;;16.20;1.00;;;;;;5050734;28;20419;-44
2023/04/30 09:29:09;;;;;;;6.60;6.00;;;16.20;1.00;;;;;;5052187;28;20234;-45
2023/04/30 09:31:40;;;;;;;6.87;6.17;;;16.10;1.00;;;;;;5053923;28;20752;-47
2023/04/30 09:34:06;;;;;;;6.20;5.70;;;16.00;1.00;;;;;;5057012;28;20493;-46
2023/04/30 09:36:32;;;;;;;6.63;6.00;;;16.10;1.00;;;;;;5058084;28;20420;-45
2023/04/30 09:39:18;;;;;;;6.97;6.30;;;16.20;1.00;;;;;;5056657;28;20189;-45
2023/04/30 09:41:45;;;;;;;6.30;5.80;;;16.40;1.00;;;;;;5059115;28;20792;-44
2023/04/30 09:44:31;;;;;;;6.33;5.73;;;16.40;1.00;;;;;;5057969;28;20534;-46
2023/04/30 09:46:57;;;;;;;6.70;6.00;;;16.20;1.00;;;;;;5056548;28;20412;-44
2023/04/30 09:49:25;;;;;;;6.00;5.50;;;16.20;1.00;;;;;;5054384;28;20432;-46
2023/04/30 09:51:57;;;;;;;6.00;5.50;;;16.30;1.00;;;;;;5056895;28;20413;-47
2023/04/30 09:54:28;;;;;;;5.00;4.60;;;16.60;1.00;;;;;;5058230;28;20455;-45
2023/04/30 09:56:56;;;;;;;5.40;5.00;;;17.00;1.00;;;;;;5058765;28;20968;-46
2023/04/30 09:59:29;;;;;;;6.70;5.70;;;17.20;1.00;;;;;;5057348;28;20531;-46
2023/04/30 10:02:00;;;;;;;5.23;4.73;;;17.40;1.00;;;;;;5057411;28;20885;-46
2023/04/30 10:04:32;;;;;;;5.80;4.80;;;17.60;1.00;;;;;;5056989;28;20439;-45
2023/04/30 10:07:01;;;;;;;5.57;4.97;;;17.60;1.00;;;;;;5057805;28;20874;-44
2023/04/30 10:09:34;;;;;;;5.67;5.07;;;17.60;1.00;;;;;;5057669;28;20763;-43
2023/04/30 10:12:00;;;;;;;5.03;4.57;;;17.70;1.00;;;;;;5056758;28;20821;-43
2023/04/30 10:14:28;;;;;;;5.60;4.47;;;17.80;1.00;;;;;;5056147;28;20455;-44
2023/04/30 10:16:58;;;;;;;5.00;4.53;;;17.80;1.00;;;;;;5055318;28;20933;-44
2023/04/30 10:19:31;;;;;;;5.53;5.03;;;17.90;1.00;;;;;;5055759;28;20468;-46
2023/04/30 10:21:57;;;;;;;6.67;6.07;;;18.20;1.00;;;;;;5056926;28;20529;-44
2023/04/30 10:24:22;;;;;;;7.37;6.77;;;18.30;1.00;;;;;;5050347;28;20440;-45
2023/04/30 10:26:49;;;;;;;6.60;5.10;;;18.30;1.00;;;;;;5049836;28;20503;-45
2023/04/30 10:29:16;;;;;;;6.33;5.83;;;18.30;1.00;;;;;;5056269;28;20292;-44
2023/04/30 10:31:47;;;;;;;6.60;5.70;;;18.40;1.00;;;;;;5056922;28;20420;-48
2023/04/30 10:34:21;;;;;;;7.60;6.90;;;18.20;1.00;;;;;;5055474;28;20440;-45
2023/04/30 10:36:50;;;;;;;7.37;6.70;;;18.10;1.00;;;;;;5055248;28;20833;-45
2023/04/30 10:39:23;;;;;;;4.60;4.20;;;18.30;1.00;;;;;;5054125;28;20428;-46
2023/04/30 10:41:48;;;;;;;5.53;4.93;;;18.40;1.00;;;;;;5055871;28;20479;-50
2023/04/30 10:44:17;;;;;;;5.60;4.57;;;18.60;1.00;;;;;;5044356;28;20449;-46
2023/04/30 10:46:45;;;;;;;5.73;5.13;;;18.60;1.00;;;;;;5036145;28;20293;-48
2023/04/30 10:49:11;;;;;;;7.87;6.80;;;18.70;1.00;;;;;;5049644;28;20444;-49
2023/04/30 10:51:46;;;;;;;5.47;4.97;;;18.80;1.00;;;;;;5056739;28;20413;-47
2023/04/30 10:54:16;;;;;;;4.97;4.47;;;18.70;1.00;;;;;;5046278;28;20273;-49
2023/04/30 10:56:45;;;;;;;5.17;4.77;;;18.90;1.00;;;;;;5036963;28;20424;-48
2023/04/30 10:59:11;;;;;;;5.50;4.87;;;18.60;1.00;;;;;;5038086;28;20722;-50
2023/04/30 11:01:56;;;;;;;6.87;5.50;;;18.60;1.00;;;;;;5045273;28;20498;-47
2023/04/30 11:04:23;;;;;;;5.27;4.77;;;18.60;1.00;;;;;;5055771;28;20420;-50
2023/04/30 11:06:51;;;;;;;5.20;4.80;;;19.00;1.00;;;;;;5057054;28;20428;-48
2023/04/30 11:09:17;;;;;;;6.50;5.53;;;19.40;1.00;;;;;;5057460;28;20436;-47
2023/04/30 11:11:49;;;;;;;7.97;7.37;;;19.80;1.00;;;;;;5055780;28;20416;-48
2023/04/30 11:14:19;;;;;;;13.00;11.90;;;20.10;1.00;;;;;;5057208;28;20458;-49
2023/04/30 11:16:48;;;;;;;7.57;6.87;;;20.10;1.00;;;;;;5056539;28;20408;-50
2023/04/30 11:19:15;;;;;;;4.80;4.40;;;20.00;1.00;;;;;;5054695;28;20435;-48
2023/04/30 11:21:41;;;;;;;5.70;5.30;;;20.30;1.00;;;;;;5054220;28;20822;-49
2023/04/30 11:24:07;;;;;;;5.83;5.03;;;20.30;1.00;;;;;;5055971;28;20433;-46
2023/04/30 11:27:03;;;;;;;5.60;5.10;;;19.80;1.00;;;;;;5055483;28;20417;-48
2023/04/30 11:29:30;;;;;;;5.30;4.80;;;19.50;1.00;;;;;;5048137;28;20233;-49
2023/04/30 11:31:56;;;;;;;6.53;5.93;;;19.10;1.00;;;;;;5053577;28;20506;-48
2023/04/30 11:34:23;;;;;;;6.40;5.53;;;18.90;1.00;;;;;;5053578;28;20547;-51
2023/04/30 11:36:48;;;;;;;5.13;4.73;;;18.70;1.00;;;;;;5056959;28;20186;-47
2023/04/30 11:39:16;;;;;;;5.30;4.80;;;18.70;1.00;;;;;;5056172;28;20451;-48
2023/04/30 11:41:42;;;;;;;11.10;10.00;;;18.60;1.00;;;;;;5054585;28;20201;-46
2023/04/30 11:44:26;;;;;;;40.57;36.23;;;18.70;1.00;;;;;;5055279;28;20432;-45
2023/04/30 11:46:52;;;;;;;8.17;7.47;;;19.10;1.00;;;;;;5055343;28;20416;-46
2023/04/30 11:49:19;;;;;;;6.63;6.13;;;19.30;1.00;;;;;;5055454;28;20438;-45
2023/04/30 11:51:48;;;;;;;8.83;8.20;;;19.50;1.00;;;;;;5055820;28;20476;-48
2023/04/30 11:54:14;;;;;;;6.43;5.90;;;19.60;1.00;;;;;;5055429;28;20446;-44
2023/04/30 11:56:48;;;;;;;5.50;5.10;;;19.70;1.00;;;;;;5056236;28;20467;-46
2023/04/30 11:59:14;;;;;;;4.50;3.93;;;19.70;1.00;;;;;;5054702;28;20439;-46
2023/04/30 12:01:41;;;;;;;7.90;7.30;;;19.70;1.00;;;;;;5051478;28;20452;-47
2023/04/30 12:04:10;;;;;;;4.40;4.00;;;19.40;1.00;;;;;;5051869;28;20435;-45
2023/04/30 12:06:35;;;;;;;4.50;4.10;;;19.20;1.00;;;;;;5054820;28;20482;-47
2023/04/30 12:09:07;;;;;;;5.70;5.23;;;19.30;1.00;;;;;;5054455;28;20417;-46
2023/04/30 12:11:34;;;;;;;5.50;5.10;;;19.30;1.00;;;;;;5054645;28;20197;-47
2023/04/30 12:14:09;;;;;;;6.60;6.20;;;19.30;1.00;;;;;;5054894;28;20459;-45
2023/04/30 12:16:48;;;;;;;4.70;4.30;;;19.40;1.00;;;;;;5053817;28;20563;-46
2023/04/30 12:19:15;;;;;;;4.87;4.47;;;19.30;1.00;;;;;;5052497;28;20922;-46
2023/04/30 12:21:46;;;;;;;4.47;4.07;;;19.50;1.00;;;;;;5047956;28;20900;-45
2023/04/30 12:24:12;;;;;;;5.23;4.83;;;19.80;1.00;;;;;;5035212;28;20483;-46
2023/04/30 12:26:39;;;;;;;5.33;4.93;;;19.90;1.00;;;;;;5033741;28;20887;-46
2023/04/30 12:29:09;;;;;;;7.30;6.60;;;19.80;1.00;;;;;;5033645;28;20555;-47
2023/04/30 12:31:36;;;;;;;5.27;4.80;;;20.00;1.00;;;;;;5032463;28;20444;-45
2023/04/30 12:34:08;;;;;;;5.00;4.60;;;20.10;1.00;;;;;;5034447;28;20986;-46
2023/04/30 12:36:35;;;;;;;5.40;4.90;;;19.90;1.00;;;;;;5032818;28;20429;-47
2023/04/30 12:39:15;;;;;;;4.33;3.93;;;19.90;1.00;;;;;;5032542;28;20842;-46
2023/04/30 12:41:42;;;;;;;4.20;3.90;;;19.70;1.00;;;;;;5034022;28;20870;-47
2023/04/30 12:44:22;;;;;;;4.60;4.20;;;19.90;1.00;;;;;;5033176;28;20486;-46
2023/04/30 12:46:48;;;;;;;4.50;4.10;;;20.20;1.00;;;;;;5032534;28;20746;-45
2023/04/30 12:49:27;;;;;;;4.90;4.43;;;20.20;1.00;;;;;;5033615;28;20425;-45